Time;durP1;ratioP1;P1;durP2;ratioP2;P2;SDS_P1;SDS_P2;PMS_P1;PMS_P2;Temp;Humidity;BMP_temperature;BMP_pressure;BME280_temperature;BME280_humidity;BME280_pressure;Samples;Min_cycle;Max_cycle;Signal;HPM_P1;HPM_P2
2022/09/14 00:00:25;;;;;;;;;;;;;;;19.52;61.51;96001.53;30001;983;1880;-64
2022/09/14 00:00:57;;;;;;;;;;;;;;;19.50;61.26;96006.56;30001;983;1875;-64
2022/09/14 00:01:29;;;;;;;;;;;;;;;19.49;61.41;96007.75;30001;983;1880;-64
2022/09/14 00:02:00;;;;;;;;;;;;;;;19.49;61.50;95996.75;30001;983;1875;-62
2022/09/14 00:02:30;;;;;;;;;;;;;;;19.48;61.37;96006.16;30001;983;1867;-64
2022/09/14 00:03:02;;;;;;;;;;;;;;;19.49;61.39;95996.75;30001;983;1867;-62
2022/09/14 00:03:34;;;;;;;;;;;;;;;19.48;61.53;96006.16;30001;983;1867;-65
2022/09/14 00:04:06;;;;;;;;;;;;;;;19.47;61.42;95999.06;30001;983;1867;-64
2022/09/14 00:04:39;;;;;;;;;;;;;;;19.45;61.70;96004.94;30001;983;1867;-63
2022/09/14 00:05:10;;;;;;;;;;;;;;;19.46;61.54;96014.78;30001;982;1867;-66
2022/09/14 00:05:41;;;;;;;;;;;;;;;19.50;61.54;96003.81;30001;982;1880;-64
2022/09/14 00:06:13;;;;;;;;;;;;;;;19.52;61.53;96007.03;30001;982;1876;-64
2022/09/14 00:06:43;;;;;;;;;;;;;;;19.52;61.36;96007.03;30001;982;1867;-64
2022/09/14 00:07:14;;;;;;;;;;;;;;;19.51;61.52;96011.75;30001;982;1867;-64
2022/09/14 00:07:47;;;;;;;;;;;;;;;19.50;61.61;96012.09;30001;983;1879;-58
2022/09/14 00:08:18;;;;;;;;;;;;;;;19.48;61.69;96015.19;30001;983;1862;-65
2022/09/14 00:08:50;;;;;;;;;;;;;;;19.47;61.60;96012.81;30001;983;1871;-57
2022/09/14 00:09:22;;;;;;;;;;;;;;;19.43;61.55;96016.31;30001;983;1875;-65
2022/09/14 00:09:53;;;;;;;;;;;;;;;19.41;61.76;96012.34;30001;983;1880;-64
2022/09/14 00:10:24;;;;;;;;;;;;;;;19.39;61.68;96017.44;30001;983;1875;-64
2022/09/14 00:10:54;;;;;;;;;;;;;;;19.38;62.03;96013.91;30001;983;1867;-63
2022/09/14 00:11:26;;;;;;;;;;;;;;;19.36;62.02;96016.22;30001;983;1867;-64
2022/09/14 00:11:57;;;;;;;;;;;;;;;19.35;61.99;96011.91;30001;982;1880;-65
2022/09/14 00:12:28;;;;;;;;;;;;;;;19.34;62.09;96010.31;30001;982;1876;-65
2022/09/14 00:12:59;;;;;;;;;;;;;;;19.33;62.11;96013.44;30001;982;1880;-65
2022/09/14 00:13:32;;;;;;;;;;;;;;;19.30;62.07;96006.72;30001;982;1876;-66
2022/09/14 00:14:04;;;;;;;;;;;;;;;19.31;62.17;96010.25;30001;982;1880;-65
2022/09/14 00:14:37;;;;;;;;;;;;;;;19.33;62.25;96011.47;30001;979;1888;-66
2022/09/14 00:15:08;;;;;;;;;;;;;;;19.31;62.17;96005.53;30001;982;1880;-65
2022/09/14 00:15:40;;;;;;;;;;;;;;;19.31;62.15;96008.28;30001;983;1862;-65
2022/09/14 00:16:16;;;;;;;;;;;;;;;19.33;62.31;96007.94;30001;983;1858;-64
2022/09/14 00:16:47;;;;;;;;;;;;;;;19.33;62.15;96005.97;30001;983;1875;-66
2022/09/14 00:17:18;;;;;;;;;;;;;;;19.34;62.18;96007.56;30001;983;1880;-65
2022/09/14 00:17:49;;;;;;;;;;;;;;;19.31;62.36;95996.50;30001;983;1875;-65
2022/09/14 00:18:19;;;;;;;;;;;;;;;19.30;62.39;96006.72;30001;983;1880;-65
2022/09/14 00:18:51;;;;;;;;;;;;;;;19.28;62.18;95991.75;30001;983;1876;-65
2022/09/14 00:19:24;;;;;;;;;;;;;;;19.27;62.60;95996.44;30001;982;1880;-63
2022/09/14 00:19:56;;;;;;;;;;;;;;;19.25;62.41;96001.53;30001;982;1876;-66
2022/09/14 00:20:28;;;;;;;;;;;;;;;19.25;62.63;95997.97;30001;985;1880;-66
2022/09/14 00:21:04;;;;;;;;;;;;;;;19.24;62.60;96002.69;30001;982;1876;-65
2022/09/14 00:21:36;;;;;;;;;;;;;;;19.26;62.85;95994.06;30001;982;1867;-62
2022/09/14 00:22:07;;;;;;;;;;;;;;;19.29;62.62;95987.81;30001;982;1854;-64
2022/09/14 00:22:38;;;;;;;;;;;;;;;19.32;62.50;95990.63;30001;982;1867;-65
2022/09/14 00:23:09;;;;;;;;;;;;;;;19.30;62.62;95990.22;30001;983;1866;-63
2022/09/14 00:23:41;;;;;;;;;;;;;;;19.28;62.76;95986.22;30001;983;1880;-65
2022/09/14 00:24:11;;;;;;;;;;;;;;;19.27;62.50;95977.19;30001;983;1862;-65
2022/09/14 00:24:42;;;;;;;;;;;;;;;19.25;62.71;95986.97;30001;983;1871;-65
2022/09/14 00:25:18;;;;;;;;;;;;;;;19.21;62.85;95980.62;30001;983;1875;-65
2022/09/14 00:25:49;;;;;;;;;;;;;;;19.19;62.76;95975.50;30001;983;1880;-63
2022/09/14 00:26:21;;;;;;;;;;;;;;;19.21;62.75;95967.66;30001;968;1794;-63
2022/09/14 00:26:52;;;;;;;;;;;;;;;19.20;62.72;95971.59;30001;983;1880;-63
2022/09/14 00:28:39;;;;;;;;;;;;;;;19.16;62.81;95972.69;89986;930;18000;-64
2022/09/14 00:29:10;;;;;;;;;;;;;;;19.16;62.81;95967.97;30001;982;1868;-66
2022/09/14 00:29:41;;;;;;;;;;;;;;;19.16;63.02;95965.22;30001;982;1868;-65
2022/09/14 00:30:12;;;;;;;;;;;;;;;19.17;63.02;95964.06;30001;982;1881;-65
2022/09/14 00:30:43;;;;;;;;;;;;;;;19.18;62.86;95959.38;30001;982;1864;-66
2022/09/14 00:31:15;;;;;;;;;;;;;;;19.15;63.10;95960.91;30001;982;1872;-67
2022/09/14 00:31:46;;;;;;;;;;;;;;;19.14;63.02;95958.50;30001;965;1886;-66
2022/09/14 00:32:16;;;;;;;;;;;;;;;19.14;62.92;95970.31;30001;983;1871;-64
2022/09/14 00:32:47;;;;;;;;;;;;;;;19.12;63.01;95961.63;30001;983;1876;-66
2022/09/14 00:33:18;;;;;;;;;;;;;;;19.13;63.13;95956.94;30001;983;1880;-62
2022/09/14 00:33:50;;;;;;;;;;;;;;;19.14;62.84;95964.81;30001;983;1876;-65
2022/09/14 00:34:21;;;;;;;;;;;;;;;19.12;63.07;95950.62;30001;983;1880;-64
2022/09/14 00:34:52;;;;;;;;;;;;;;;19.12;62.94;95953.37;30001;983;1876;-64
2022/09/14 00:35:23;;;;;;;;;;;;;;;19.10;62.80;95958.47;30001;983;1867;-64
2022/09/14 00:35:54;;;;;;;;;;;;;;;19.08;62.88;95953.31;30001;982;1867;-65
2022/09/14 00:36:25;;;;;;;;;;;;;;;19.08;63.18;95949.78;30001;982;1867;-63
2022/09/14 00:36:56;;;;;;;;;;;;;;;19.08;63.02;95958.03;30001;982;1868;-65
2022/09/14 00:37:27;;;;;;;;;;;;;;;19.07;62.95;95956.44;30001;982;1868;-65
2022/09/14 00:37:58;;;;;;;;;;;;;;;19.06;62.99;95957.59;30001;982;1868;-65
2022/09/14 00:38:29;;;;;;;;;;;;;;;19.05;63.00;95961.56;30001;982;1881;-64
2022/09/14 00:39:00;;;;;;;;;;;;;;;19.04;63.12;95957.22;30001;982;1876;-65
2022/09/14 00:39:31;;;;;;;;;;;;;;;19.03;63.23;95952.88;30001;983;1880;-65
2022/09/14 00:40:03;;;;;;;;;;;;;;;19.01;62.93;95957.94;30001;983;1876;-65
2022/09/14 00:40:35;;;;;;;;;;;;;;;19.00;63.03;95954.41;30001;983;1880;-63
2022/09/14 00:41:07;;;;;;;;;;;;;;;19.01;63.19;95952.44;30001;983;1876;-65
2022/09/14 00:41:39;;;;;;;;;;;;;;;19.02;63.28;95948.53;30001;983;1880;-65
2022/09/14 00:42:14;;;;;;;;;;;;;;;19.02;63.07;95951.28;30001;983;1863;-65
2022/09/14 00:42:48;;;;;;;;;;;;;;;19.06;63.29;95954.84;30001;983;1872;-64
2022/09/14 00:43:18;;;;;;;;;;;;;;;19.07;63.38;95953.69;30001;983;1876;-63
2022/09/14 00:44:18;;;;;;;;;;;;;;;19.07;63.18;95943.50;30001;982;1881;-64
2022/09/14 00:44:58;;;;;;;;;;;;;;;19.12;62.90;95947.88;30001;982;1872;-65
2022/09/14 00:45:29;;;;;;;;;;;;;;;19.13;62.85;95949.47;30001;982;1876;-64
2022/09/14 00:46:03;;;;;;;;;;;;;;;19.14;62.80;95953.00;30001;982;1877;-64
2022/09/14 00:46:39;;;;;;;;;;;;;;;19.14;62.80;95951.06;30001;982;1868;-64
2022/09/14 00:47:11;;;;;;;;;;;;;;;19.16;62.66;95954.22;30001;983;1867;-62
2022/09/14 00:47:42;;;;;;;;;;;;;;;19.17;62.88;95944.03;30001;983;1880;-64
2022/09/14 00:48:19;;;;;;;;;;;;;;;19.16;62.71;95951.47;30001;983;1876;-64
2022/09/14 00:48:53;;;;;;;;;;;;;;;19.14;62.55;95953.81;30001;983;1880;-66
2022/09/14 00:49:25;;;;;;;;;;;;;;;19.13;62.82;95945.94;30001;983;1876;-65
2022/09/14 00:49:57;;;;;;;;;;;;;;;19.13;62.95;95946.72;30001;983;1867;-63
2022/09/14 00:50:28;;;;;;;;;;;;;;;19.13;62.96;95952.22;30001;983;1868;-65
2022/09/14 00:51:02;;;;;;;;;;;;;;;19.13;62.84;95941.22;30001;986;1881;-65
2022/09/14 00:51:35;;;;;;;;;;;;;;;19.12;63.01;95950.62;30001;982;1876;-64
2022/09/14 00:52:15;;;;;;;;;;;;;;;19.10;62.70;95947.47;30001;982;1868;-65
2022/09/14 00:52:47;;;;;;;;;;;;;;;19.09;63.02;95945.87;30001;982;1868;-66
2022/09/14 00:53:18;;;;;;;;;;;;;;;19.09;63.15;95948.63;30001;982;1881;-64
2022/09/14 00:53:49;;;;;;;;;;;;;;;19.08;63.11;95949.78;30001;983;1876;-64
2022/09/14 00:54:20;;;;;;;;;;;;;;;19.06;63.02;95943.88;30001;983;1880;-64
2022/09/14 00:54:53;;;;;;;;;;;;;;;19.06;62.94;95946.59;30001;986;1868;-63
2022/09/14 00:55:24;;;;;;;;;;;;;;;19.06;63.08;95939.16;30001;983;1881;-64
2022/09/14 00:55:55;;;;;;;;;;;;;;;19.06;63.32;95939.16;30001;983;1876;-65
2022/09/14 00:56:26;;;;;;;;;;;;;;;19.09;63.34;95941.16;30001;983;1880;-65
2022/09/14 00:56:58;;;;;;;;;;;;;;;19.11;63.32;95938.06;30001;983;1876;-64
2022/09/14 00:57:33;;;;;;;;;;;;;;;19.13;63.48;95935.72;30001;983;1867;-64
2022/09/14 00:59:19;;;;;;;;;;;;;;;19.22;62.83;95919.75;89986;930;18000;-64
2022/09/14 00:59:51;;;;;;;;;;;;;;;19.21;63.19;95920.91;30001;983;1868;-63
2022/09/14 01:00:24;;;;;;;;;;;;;;;19.24;62.88;95908.37;30001;983;1856;-64
2022/09/14 01:00:57;;;;;;;;;;;;;;;19.24;62.59;95911.94;30001;982;1882;-62
2022/09/14 01:01:28;;;;;;;;;;;;;;;19.26;62.98;95906.84;30001;982;1877;-63
2022/09/14 01:01:59;;;;;;;;;;;;;;;19.29;62.91;95910.81;30001;982;1881;-64
2022/09/14 01:02:31;;;;;;;;;;;;;;;19.31;62.81;95911.25;30001;982;1783;-65
2022/09/14 01:03:02;;;;;;;;;;;;;;;19.29;62.92;95911.59;30001;982;1868;-64
2022/09/14 01:03:33;;;;;;;;;;;;;;;19.25;62.68;95905.25;30001;983;1867;-63
2022/09/14 01:04:04;;;;;;;;;;;;;;;19.23;63.02;95913.09;30001;983;1881;-64
2022/09/14 01:04:35;;;;;;;;;;;;;;;19.21;63.00;95911.88;30001;983;1876;-65
2022/09/14 01:05:09;;;;;;;;;;;;;;;19.20;62.90;95919.34;30001;983;1881;-63
2022/09/14 01:05:59;;;;;;;;;;;;;;;19.17;63.23;95914.56;30001;983;1877;-64
2022/09/14 01:06:55;;;;;;;;;;;;;;;19.16;63.41;95923.97;30001;983;1873;-57
2022/09/14 01:07:46;;;;;;;;;;;;;;;19.18;63.28;95921.66;30001;983;1859;-64
2022/09/14 01:08:24;;;;;;;;;;;;;;;19.19;63.42;95916.94;30001;982;1868;-65
2022/09/14 01:09:27;;;;;;;;;;;;;;;19.27;63.57;95919.44;30001;982;1877;-65
2022/09/14 01:10:36;;;;;;;;;;;;;;;19.29;63.60;95916.31;30001;982;1864;-64
2022/09/14 01:11:35;;;;;;;;;;;;;;;19.31;63.83;95903.78;30001;983;1863;-65
2022/09/14 01:12:38;;;;;;;;;;;;;;;19.28;64.05;95895.47;30001;983;1863;-64
2022/09/14 01:13:22;;;;;;;;;;;;;;;19.28;63.95;95888.03;30001;983;1863;-66
2022/09/14 01:14:11;;;;;;;;;;;;;;;19.26;63.97;95890.34;30001;983;1881;-64
2022/09/14 01:14:50;;;;;;;;;;;;;;;19.26;64.56;95884.06;30001;965;1894;-66
2022/09/14 01:15:26;;;;;;;;;;;;;;;19.25;64.83;95883.25;30001;982;1881;-63
2022/09/14 01:16:12;;;;;;;;;;;;;;;19.22;65.16;95881.25;30001;982;1877;-65
2022/09/14 01:17:00;;;;;;;;;;;;;;;19.20;65.38;95886.34;30001;982;1881;-64
2022/09/14 01:17:49;;;;;;;;;;;;;;;19.18;65.55;95874.91;30001;982;1865;-59
2022/09/14 01:18:23;;;;;;;;;;;;;;;19.17;65.96;95881.56;30001;983;1872;-65
2022/09/14 01:18:56;;;;;;;;;;;;;;;19.14;66.39;95887.81;30001;983;1876;-66
2022/09/14 01:19:44;;;;;;;;;;;;;;;19.10;66.02;95889.72;30001;983;1880;-65
2022/09/14 01:20:19;;;;;;;;;;;;;;;19.06;66.81;95902.63;30001;983;1876;-66
2022/09/14 01:20:55;;;;;;;;;;;;;;;19.02;67.40;95901.81;30001;959;1905;-66
2022/09/14 01:21:30;;;;;;;;;;;;;;;18.99;66.80;95916.28;30001;983;1877;-66
2022/09/14 01:22:06;;;;;;;;;;;;;;;18.95;66.84;95923.69;30001;983;1881;-65
2022/09/14 01:22:59;;;;;;;;;;;;;;;18.93;68.66;95937.81;30001;982;1864;-67
2022/09/14 01:23:48;;;;;;;;;;;;;;;18.88;68.00;95978.53;30001;982;1872;-66
2022/09/14 01:24:26;;;;;;;;;;;;;;;18.85;67.81;96012.25;30001;982;1877;-66
2022/09/14 01:25:07;;;;;;;;;;;;;;;18.83;67.62;96020.88;30001;982;1881;-66
2022/09/14 01:25:56;;;;;;;;;;;;;;;18.83;68.34;96014.59;30001;982;1877;-68
2022/09/14 01:26:52;;;;;;;;;;;;;;;18.96;68.26;95986.53;30001;983;1872;-67
2022/09/14 01:27:30;;;;;;;;;;;;;;;18.99;67.81;96023.50;30001;983;1872;-67
2022/09/14 01:28:04;;;;;;;;;;;;;;;18.98;67.94;96060.41;30001;983;1867;-66
2022/09/14 01:28:48;;;;;;;;;;;;;;;18.98;68.58;96052.16;30001;983;1868;-70
2022/09/14 01:29:45;;;;;;;;;;;;;;;19.00;73.19;96064.38;30001;983;1881;-67
2022/09/14 01:30:21;;;;;;;;;;;;;;;18.93;74.62;96039.50;30001;982;1872;-69
2022/09/14 01:30:53;;;;;;;;;;;;;;;18.82;74.53;96021.25;30001;982;1881;-75
2022/09/14 01:31:35;;;;;;;;;;;;;;;18.70;77.45;96000.25;30001;982;1877;-74
2022/09/14 01:32:17;;;;;;;;;;;;;;;18.55;79.48;95999.16;30001;982;1881;-76
2022/09/14 01:32:55;;;;;;;;;;;;;;;18.38;79.64;95994.94;30001;982;1877;-71
2022/09/14 01:33:32;;;;;;;;;;;;;;;18.23;81.41;95978.56;30001;983;1867;-66
2022/09/14 01:34:07;;;;;;;;;;;;;;;18.11;82.66;95989.72;30001;983;1867;-74
2022/09/14 01:35:06;;;;;;;;;;;;;;;17.97;83.43;95988.28;30001;983;1881;-70
2022/09/14 01:35:45;;;;;;;;;;;;;;;17.77;85.41;95991.37;30001;983;1872;-67
2022/09/14 01:36:17;;;;;;;;;;;;;;;17.65;85.19;95995.06;30001;983;1868;-73
2022/09/14 01:36:51;;;;;;;;;;;;;;;17.57;86.22;95998.78;30001;983;1868;-74
2022/09/14 01:37:28;;;;;;;;;;;;;;;17.47;86.24;95994.66;30001;983;1881;-72
2022/09/14 01:38:05;;;;;;;;;;;;;;;17.36;86.79;95991.66;30001;982;1877;-71
2022/09/14 01:38:49;;;;;;;;;;;;;;;17.32;88.00;95992.78;30001;982;1881;-72
2022/09/14 01:39:20;;;;;;;;;;;;;;;17.27;89.83;95991.09;30001;982;1877;-71
2022/09/14 01:39:54;;;;;;;;;;;;;;;17.22;91.25;95993.31;30001;982;1881;-72
2022/09/14 01:40:37;;;;;;;;;;;;;;;17.16;92.22;96001.00;30001;982;1878;-74
2022/09/14 01:41:11;;;;;;;;;;;;;;;17.11;93.07;95998.53;30001;983;1868;-73
2022/09/14 01:41:42;;;;;;;;;;;;;;;17.06;93.14;96001.56;30001;983;1868;-72
2022/09/14 01:42:14;;;;;;;;;;;;;;;17.02;93.34;96012.44;30001;983;1867;-72
2022/09/14 01:42:48;;;;;;;;;;;;;;;16.99;93.76;96001.38;30001;983;1868;-73
2022/09/14 01:43:28;;;;;;;;;;;;;;;16.95;92.95;96006.81;30001;983;1881;-70
2022/09/14 01:44:08;;;;;;;;;;;;;;;16.93;92.91;96011.03;30001;983;1877;-70
2022/09/14 01:44:44;;;;;;;;;;;;;;;16.90;93.25;96017.22;30001;983;1881;-70
2022/09/14 01:45:17;;;;;;;;;;;;;;;16.87;92.74;96010.50;30001;982;1864;-69
2022/09/14 01:45:50;;;;;;;;;;;;;;;16.86;92.65;96003.44;30001;982;1872;-68
2022/09/14 01:46:50;;;;;;;;;;;;;;;16.87;93.38;95993.28;30001;982;1877;-66
2022/09/14 01:47:26;;;;;;;;;;;;;;;16.84;93.49;95993.97;30001;982;1877;-68
2022/09/14 01:48:02;;;;;;;;;;;;;;;16.81;93.43;96005.66;30001;983;1876;-70
2022/09/14 01:48:36;;;;;;;;;;;;;;;16.81;92.77;96008.38;30001;983;1868;-67
2022/09/14 01:49:18;;;;;;;;;;;;;;;16.81;93.21;96011.12;30001;983;1868;-67
2022/09/14 01:49:51;;;;;;;;;;;;;;;16.87;93.83;96005.03;30001;983;1881;-65
2022/09/14 01:50:32;;;;;;;;;;;;;;;16.88;93.99;95995.66;30001;983;1877;-67
2022/09/14 01:51:07;;;;;;;;;;;;;;;16.93;93.91;95997.34;30001;983;1881;-67
2022/09/14 01:51:41;;;;;;;;;;;;;;;16.91;94.22;95994.97;30001;983;1863;-67
2022/09/14 01:52:16;;;;;;;;;;;;;;;16.90;93.45;96003.53;30001;983;1872;-68
2022/09/14 01:52:53;;;;;;;;;;;;;;;16.88;93.57;95995.66;30001;982;1877;-67
2022/09/14 01:53:43;;;;;;;;;;;;;;;16.89;94.09;96001.94;30001;982;1868;-69
2022/09/14 01:54:17;;;;;;;;;;;;;;;16.88;93.81;95994.88;30001;982;1868;-69
2022/09/14 01:54:51;;;;;;;;;;;;;;;16.88;94.06;95997.59;30001;982;1881;-59
2022/09/14 01:55:40;;;;;;;;;;;;;;;16.88;94.56;95994.88;30001;983;1876;-69
2022/09/14 01:56:22;;;;;;;;;;;;;;;16.88;94.94;96000.34;30001;983;1868;-70
2022/09/14 01:57:12;;;;;;;;;;;;;;;16.94;95.93;95997.00;30001;983;1867;-73
2022/09/14 01:57:45;;;;;;;;;;;;;;;16.96;96.02;96004.84;30001;983;1881;-69
2022/09/14 01:58:21;;;;;;;;;;;;;;;16.93;96.03;95998.13;30001;983;1876;-69
2022/09/14 01:59:15;;;;;;;;;;;;;;;16.95;95.87;96000.53;30001;983;1880;-68
2022/09/14 02:00:55;;;;;;;;;;;;;;;16.92;96.13;96012.19;89986;930;18000;-69
2022/09/14 02:01:32;;;;;;;;;;;;;;;16.91;96.28;96007.84;30001;982;1868;-70
2022/09/14 02:02:06;;;;;;;;;;;;;;;16.96;96.43;96002.91;30001;982;1868;-70
2022/09/14 02:02:39;;;;;;;;;;;;;;;16.95;96.25;96006.00;30001;982;1881;-69
2022/09/14 02:03:12;;;;;;;;;;;;;;;16.94;96.67;96001.69;30001;983;1876;-70
2022/09/14 02:03:47;;;;;;;;;;;;;;;16.90;96.60;95998.84;30001;983;1880;-69
2022/09/14 02:04:25;;;;;;;;;;;;;;;16.88;96.13;95994.88;30001;983;1876;-71
2022/09/14 02:05:02;;;;;;;;;;;;;;;16.88;96.86;95990.19;30001;983;1880;-70
2022/09/14 02:05:35;;;;;;;;;;;;;;;16.87;96.71;95993.28;30001;983;1876;-71
2022/09/14 02:06:11;;;;;;;;;;;;;;;16.86;97.12;95991.69;30001;983;1880;-70
2022/09/14 02:06:45;;;;;;;;;;;;;;;16.86;97.83;95994.44;30001;983;1863;-71
2022/09/14 02:07:17;;;;;;;;;;;;;;;16.84;97.74;96005.75;30001;983;1872;-71
2022/09/14 02:07:48;;;;;;;;;;;;;;;16.83;98.21;96003.34;30001;982;1876;-70
2022/09/14 02:08:19;;;;;;;;;;;;;;;16.83;98.44;95997.88;30001;982;1881;-71
2022/09/14 02:08:50;;;;;;;;;;;;;;;16.81;98.50;96006.44;30001;985;1858;-71
2022/09/14 02:09:25;;;;;;;;;;;;;;;16.80;98.55;96001.31;30001;982;1876;-71
2022/09/14 02:09:56;;;;;;;;;;;;;;;16.79;98.44;95997.00;30001;982;1868;-71
2022/09/14 02:10:28;;;;;;;;;;;;;;;16.77;97.96;95999.28;30001;982;1877;-71
2022/09/14 02:10:59;;;;;;;;;;;;;;;16.75;97.55;96002.38;30001;983;1880;-71
2022/09/14 02:11:30;;;;;;;;;;;;;;;16.76;97.98;96009.44;30001;983;1884;-71
2022/09/14 02:12:01;;;;;;;;;;;;;;;16.75;97.81;96013.34;30001;983;1880;-70
2022/09/14 02:12:32;;;;;;;;;;;;;;;16.79;97.92;96007.94;30001;983;1885;-72
2022/09/14 02:13:03;;;;;;;;;;;;;;;16.79;97.51;96014.22;30001;983;1880;-75
2022/09/14 02:13:34;;;;;;;;;;;;;;;16.80;97.65;96020.50;30001;983;1885;-73
2022/09/14 02:14:05;;;;;;;;;;;;;;;16.81;97.55;96011.12;30001;983;1881;-74
2022/09/14 02:14:36;;;;;;;;;;;;;;;16.81;98.16;96017.41;30001;983;1885;-75
2022/09/14 02:15:09;;;;;;;;;;;;;;;16.82;98.62;96013.50;30001;982;1867;-75
2022/09/14 02:15:39;;;;;;;;;;;;;;;16.81;98.95;96013.88;30001;982;1876;-76
2022/09/14 02:16:11;;;;;;;;;;;;;;;16.82;99.48;96023.69;30001;982;1881;-77
2022/09/14 02:16:44;;;;;;;;;;;;;;;16.80;99.39;96024.03;30001;982;1885;-75
2022/09/14 02:17:16;;;;;;;;;;;;;;;16.81;99.38;96024.81;30001;967;1892;-74
2022/09/14 02:17:47;;;;;;;;;;;;;;;16.83;97.96;96019.78;30001;982;1885;-73
2022/09/14 02:18:18;;;;;;;;;;;;;;;16.81;97.40;96022.09;30001;983;1881;-78
2022/09/14 02:18:50;;;;;;;;;;;;;;;16.81;96.91;96016.59;30001;983;1884;-77
2022/09/14 02:19:21;;;;;;;;;;;;;;;16.80;96.84;96015.00;30001;983;1880;-77
2022/09/14 02:19:56;;;;;;;;;;;;;;;16.80;97.18;96018.56;30001;983;1885;-76
2022/09/14 02:20:31;;;;;;;;;;;;;;;16.79;97.03;96019.69;30001;983;1867;-76
2022/09/14 02:21:05;;;;;;;;;;;;;;;16.77;96.69;96010.25;30001;983;1876;-76
2022/09/14 02:21:37;;;;;;;;;;;;;;;16.77;97.14;96015.72;30001;983;1881;-77
2022/09/14 02:22:08;;;;;;;;;;;;;;;16.77;97.27;96010.25;30001;983;1885;-76
2022/09/14 02:22:39;;;;;;;;;;;;;;;16.75;97.40;96007.84;30001;986;1871;-77
2022/09/14 02:23:10;;;;;;;;;;;;;;;16.74;97.10;96001.56;30001;982;1885;-76
2022/09/14 02:23:41;;;;;;;;;;;;;;;16.74;97.59;96009.00;30001;982;1881;-61
2022/09/14 02:24:12;;;;;;;;;;;;;;;16.73;97.93;96002.72;30001;982;1885;-76
2022/09/14 02:24:43;;;;;;;;;;;;;;;16.75;98.39;95999.63;30001;982;1881;-76
2022/09/14 02:25:14;;;;;;;;;;;;;;;16.75;98.68;96010.59;30001;983;1884;-75
2022/09/14 02:25:46;;;;;;;;;;;;;;;16.74;99.17;96007.06;30001;983;1867;-75
2022/09/14 02:26:18;;;;;;;;;;;;;;;16.74;99.00;95996.09;30001;983;1876;-75
2022/09/14 02:26:50;;;;;;;;;;;;;;;16.73;99.29;95988.22;30001;983;1881;-74
2022/09/14 02:27:21;;;;;;;;;;;;;;;16.74;99.71;96001.56;30001;983;1885;-72
2022/09/14 02:27:52;;;;;;;;;;;;;;;16.74;100.00;95993.38;30001;983;1880;-72
2022/09/14 02:28:23;;;;;;;;;;;;;;;16.74;100.00;95993.38;30001;983;1885;-72
2022/09/14 02:28:55;;;;;;;;;;;;;;;16.72;100.00;96003.88;30001;983;1880;-72
2022/09/14 02:29:25;;;;;;;;;;;;;;;16.72;100.00;96000.34;30001;983;1885;-70
2022/09/14 02:29:57;;;;;;;;;;;;;;;16.71;100.00;95993.28;30001;983;1881;-71
2022/09/14 02:30:32;;;;;;;;;;;;;;;16.70;100.00;95999.91;30001;982;1885;-69
2022/09/14 02:31:41;;;;;;;;;;;;;;;16.69;100.00;96001.84;30001;982;1868;-70
2022/09/14 02:32:34;;;;;;;;;;;;;;;16.70;99.71;95994.41;30001;982;1872;-72
2022/09/14 02:33:09;;;;;;;;;;;;;;;16.68;99.27;95996.72;30001;983;1880;-71
2022/09/14 02:33:56;;;;;;;;;;;;;;;16.67;99.60;95995.91;30001;983;1884;-70
2022/09/14 02:34:32;;;;;;;;;;;;;;;16.67;99.63;96001.41;30001;983;1880;-69
2022/09/14 02:35:23;;;;;;;;;;;;;;;16.66;99.47;95994.31;30001;983;1885;-71
2022/09/14 02:35:55;;;;;;;;;;;;;;;16.64;98.95;96004.84;30001;983;1877;-70
2022/09/14 02:36:52;;;;;;;;;;;;;;;16.64;99.13;96007.56;30001;983;1872;-70
2022/09/14 02:37:35;;;;;;;;;;;;;;;16.63;99.12;96005.97;30001;983;1868;-70
2022/09/14 02:38:28;;;;;;;;;;;;;;;16.64;99.60;96017.75;30001;982;1886;-69
2022/09/14 02:39:09;;;;;;;;;;;;;;;16.64;99.75;96013.06;30001;982;1876;-70
2022/09/14 02:39:58;;;;;;;;;;;;;;;16.63;100.00;96014.19;30001;982;1885;-68
2022/09/14 02:40:52;;;;;;;;;;;;;;;16.64;99.81;96006.78;30001;983;1871;-69
2022/09/14 02:41:40;;;;;;;;;;;;;;;16.64;100.00;96013.06;30001;983;1867;-68
2022/09/14 02:42:33;;;;;;;;;;;;;;;16.63;100.00;96011.44;30001;983;1871;-69
2022/09/14 02:43:27;;;;;;;;;;;;;;;16.63;100.00;96005.97;30001;983;1881;-69
2022/09/14 02:44:03;;;;;;;;;;;;;;;16.62;100.00;95996.19;30001;983;1876;-67
2022/09/14 02:44:40;;;;;;;;;;;;;;;16.62;100.00;95998.91;30001;982;1885;-68
2022/09/14 02:45:20;;;;;;;;;;;;;;;16.61;100.00;95996.53;30001;982;1881;-68
2022/09/14 02:46:09;;;;;;;;;;;;;;;16.61;99.98;95997.31;30001;982;1885;-69
2022/09/14 02:46:54;;;;;;;;;;;;;;;16.60;100.00;95995.75;30001;986;1850;-67
2022/09/14 02:47:54;;;;;;;;;;;;;;;16.59;100.00;95988.66;30001;982;1868;-68
2022/09/14 02:48:44;;;;;;;;;;;;;;;16.60;99.92;96000.41;30001;983;1876;-67
2022/09/14 02:49:39;;;;;;;;;;;;;;;16.61;99.23;96002.00;30001;983;1880;-67
2022/09/14 02:50:28;;;;;;;;;;;;;;;16.61;99.13;96000.06;30001;983;1876;-67
2022/09/14 02:51:22;;;;;;;;;;;;;;;16.61;98.75;96007.47;30001;983;1881;-69
2022/09/14 02:52:01;;;;;;;;;;;;;;;16.59;98.79;96005.09;30001;982;1859;-68
2022/09/14 02:52:34;;;;;;;;;;;;;;;16.58;98.51;96008.97;30001;982;1872;-69
2022/09/14 02:53:14;;;;;;;;;;;;;;;16.58;98.42;96006.25;30001;982;1877;-69
2022/09/14 02:53:52;;;;;;;;;;;;;;;16.58;98.40;96008.19;30001;982;1881;-68
2022/09/14 02:54:46;;;;;;;;;;;;;;;16.58;98.61;96002.72;30001;982;1877;-67
2022/09/14 02:55:19;;;;;;;;;;;;;;;16.57;98.74;95995.66;30001;983;1876;-68
2022/09/14 02:56:09;;;;;;;;;;;;;;;16.57;98.37;95999.19;30001;983;1876;-68
2022/09/14 02:56:43;;;;;;;;;;;;;;;16.58;98.91;95992.56;30001;983;1867;-67
2022/09/14 02:57:14;;;;;;;;;;;;;;;16.60;99.17;95989.47;30001;983;1868;-68
2022/09/14 02:57:58;;;;;;;;;;;;;;;16.58;99.53;95989.03;30001;983;1881;-68
2022/09/14 02:58:36;;;;;;;;;;;;;;;16.57;99.21;95988.22;30001;983;1876;-66
2022/09/14 02:59:07;;;;;;;;;;;;;;;16.57;99.01;95985.47;30001;983;1881;-66
2022/09/14 02:59:38;;;;;;;;;;;;;;;16.58;99.07;95986.28;30001;982;1876;-66
2022/09/14 03:00:10;;;;;;;;;;;;;;;16.58;98.76;95987.06;30001;982;1868;-65
2022/09/14 03:00:42;;;;;;;;;;;;;;;16.58;98.91;95987.06;30001;982;1854;-67
2022/09/14 03:02:23;;;;;;;;;;;;;;;16.55;98.53;95982.31;89986;930;18000;-65
2022/09/14 03:02:53;;;;;;;;;;;;;;;16.56;98.78;95978.41;30001;982;1869;-67
2022/09/14 03:03:25;;;;;;;;;;;;;;;16.56;98.36;95978.41;30001;982;1868;-67
2022/09/14 03:03:56;;;;;;;;;;;;;;;16.56;98.54;95978.41;30001;983;1880;-67
2022/09/14 03:04:27;;;;;;;;;;;;;;;16.56;98.50;95972.94;30001;983;1876;-67
2022/09/14 03:04:58;;;;;;;;;;;;;;;16.55;98.24;95967.81;30001;983;1880;-66
2022/09/14 03:05:29;;;;;;;;;;;;;;;16.53;98.45;95970.91;30001;983;1863;-67
2022/09/14 03:06:01;;;;;;;;;;;;;;;16.56;98.74;95972.94;30001;983;1872;-66
2022/09/14 03:06:32;;;;;;;;;;;;;;;16.55;98.90;95970.56;30001;983;1876;-67
2022/09/14 03:07:02;;;;;;;;;;;;;;;16.55;98.92;95974.09;30001;983;1880;-66
2022/09/14 03:07:33;;;;;;;;;;;;;;;16.53;99.20;95968.16;30001;983;1876;-66
2022/09/14 03:08:04;;;;;;;;;;;;;;;16.53;99.02;95972.84;30001;982;1868;-66
2022/09/14 03:08:35;;;;;;;;;;;;;;;16.52;98.96;95971.25;30001;982;1868;-66
2022/09/14 03:09:06;;;;;;;;;;;;;;;16.51;99.62;95970.47;30001;982;1881;-66
2022/09/14 03:09:37;;;;;;;;;;;;;;;16.52;99.77;95971.25;30001;982;1877;-66
2022/09/14 03:10:09;;;;;;;;;;;;;;;16.50;100.00;95963.41;30001;982;1881;-65
2022/09/14 03:10:41;;;;;;;;;;;;;;;16.49;99.90;95970.00;30001;982;1877;-67
2022/09/14 03:11:12;;;;;;;;;;;;;;;16.48;100.00;95979.38;30001;982;1881;-66
2022/09/14 03:11:43;;;;;;;;;;;;;;;16.48;100.00;95971.16;30001;983;1876;-65
2022/09/14 03:12:14;;;;;;;;;;;;;;;16.47;99.86;95972.31;30001;983;1880;-65
2022/09/14 03:12:45;;;;;;;;;;;;;;;16.47;100.00;95968.78;30001;983;1876;-67
2022/09/14 03:13:16;;;;;;;;;;;;;;;16.48;100.00;95967.63;30001;983;1867;-66
2022/09/14 03:13:47;;;;;;;;;;;;;;;16.47;100.00;95971.50;30001;983;1867;-67
2022/09/14 03:14:17;;;;;;;;;;;;;;;16.46;100.00;95970.72;30001;983;1880;-67
2022/09/14 03:14:48;;;;;;;;;;;;;;;16.45;100.00;95971.88;30001;983;1876;-67
2022/09/14 03:15:19;;;;;;;;;;;;;;;16.46;100.00;95967.19;30001;983;1880;-67
2022/09/14 03:15:50;;;;;;;;;;;;;;;16.47;100.00;95972.31;30001;982;1876;-67
2022/09/14 03:17:31;;;;;;;;;;;;;;;16.47;100.00;95964.09;89986;930;18000;-65
2022/09/14 03:18:03;;;;;;;;;;;;;;;16.47;100.00;95964.09;30001;983;1868;-64